sensor_id;sensor_type;location;lat;lon;timestamp;pressure;altitude;pressure_sealevel;temperature;humidity
70971;BME280;58632;51.718;19.446;2023-04-23T00:00:57;99241.66;;;7.16;100.00
70971;BME280;58632;51.718;19.446;2023-04-23T00:03:36;99243.92;;;7.08;100.00
70971;BME280;58632;51.718;19.446;2023-04-23T00:06:04;99238.18;;;7.01;100.00
70971;BME280;58632;51.718;19.446;2023-04-23T00:08:31;99238.29;;;6.99;100.00
70971;BME280;58632;51.718;19.446;2023-04-23T00:10:57;99235.71;;;6.95;100.00
70971;BME280;58632;51.718;19.446;2023-04-23T00:13:23;99233.30;;;6.94;100.00
70971;BME280;58632;51.718;19.446;2023-04-23T00:15:48;99235.17;;;6.92;100.00
70971;BME280;58632;51.718;19.446;2023-04-23T00:18:14;99236.28;;;6.92;100.00
70971;BME280;58632;51.718;19.446;2023-04-23T00:20:41;99235.58;;;6.91;100.00
70971;BME280;58632;51.718;19.446;2023-04-23T00:23:06;99238.18;;;6.86;100.00
70971;BME280;58632;51.718;19.446;2023-04-23T00:25:32;99235.66;;;6.79;100.00
70971;BME280;58632;51.718;19.446;2023-04-23T00:27:57;99235.94;;;6.75;100.00
70971;BME280;58632;51.718;19.446;2023-04-23T00:30:23;99238.86;;;6.72;100.00
70971;BME280;58632;51.718;19.446;2023-04-23T00:32:48;99235.72;;;6.68;100.00
70971;BME280;58632;51.718;19.446;2023-04-23T00:35:14;99232.21;;;6.69;100.00
70971;BME280;58632;51.718;19.446;2023-04-23T00:37:39;99232.16;;;6.71;100.00
70971;BME280;58632;51.718;19.446;2023-04-23T00:40:06;99229.84;;;6.73;100.00
70971;BME280;58632;51.718;19.446;2023-04-23T00:42:32;99227.80;;;6.74;100.00
70971;BME280;58632;51.718;19.446;2023-04-23T00:44:58;99225.10;;;6.75;100.00
70971;BME280;58632;51.718;19.446;2023-04-23T00:47:28;99221.77;;;6.75;100.00
70971;BME280;58632;51.718;19.446;2023-04-23T00:49:55;99224.05;;;6.76;100.00
70971;BME280;58632;51.718;19.446;2023-04-23T00:52:20;99222.38;;;6.73;100.00
70971;BME280;58632;51.718;19.446;2023-04-23T00:54:46;99222.27;;;6.71;100.00
70971;BME280;58632;51.718;19.446;2023-04-23T00:57:11;99220.14;;;6.69;100.00
70971;BME280;58632;51.718;19.446;2023-04-23T00:59:37;99221.00;;;6.69;100.00
70971;BME280;58632;51.718;19.446;2023-04-23T01:02:03;99218.56;;;6.69;100.00
70971;BME280;58632;51.718;19.446;2023-04-23T01:04:34;99216.77;;;6.68;100.00
70971;BME280;58632;51.718;19.446;2023-04-23T01:07:00;99218.52;;;6.66;100.00
70971;BME280;58632;51.718;19.446;2023-04-23T01:09:26;99220.27;;;6.64;100.00
70971;BME280;58632;51.718;19.446;2023-04-23T01:11:52;99220.56;;;6.62;100.00
70971;BME280;58632;51.718;19.446;2023-04-23T01:14:18;99222.34;;;6.59;100.00
70971;BME280;58632;51.718;19.446;2023-04-23T01:16:44;99220.33;;;6.54;100.00
70971;BME280;58632;51.718;19.446;2023-04-23T01:19:11;99221.17;;;6.50;100.00
70971;BME280;58632;51.718;19.446;2023-04-23T01:21:38;99222.78;;;6.50;100.00
70971;BME280;58632;51.718;19.446;2023-04-23T01:24:08;99220.09;;;6.49;100.00
70971;BME280;58632;51.718;19.446;2023-04-23T01:26:33;99218.23;;;6.49;100.00
70971;BME280;58632;51.718;19.446;2023-04-23T01:29:00;99221.30;;;6.45;100.00
70971;BME280;58632;51.718;19.446;2023-04-23T01:31:29;99218.60;;;6.44;100.00
70971;BME280;58632;51.718;19.446;2023-04-23T01:33:55;99219.64;;;6.43;100.00
70971;BME280;58632;51.718;19.446;2023-04-23T01:36:22;99215.13;;;6.40;100.00
70971;BME280;58632;51.718;19.446;2023-04-23T01:38:51;99214.81;;;6.37;100.00
70971;BME280;58632;51.718;19.446;2023-04-23T01:41:17;99215.65;;;6.33;100.00
70971;BME280;58632;51.718;19.446;2023-04-23T01:43:44;99214.09;;;6.32;100.00
70971;BME280;58632;51.718;19.446;2023-04-23T01:46:10;99216.08;;;6.31;100.00
70971;BME280;58632;51.718;19.446;2023-04-23T01:48:39;99214.78;;;6.29;100.00
70971;BME280;58632;51.718;19.446;2023-04-23T01:51:04;99213.63;;;6.29;100.00
70971;BME280;58632;51.718;19.446;2023-04-23T01:53:30;99212.06;;;6.29;100.00
70971;BME280;58632;51.718;19.446;2023-04-23T01:55:56;99211.30;;;6.29;100.00
70971;BME280;58632;51.718;19.446;2023-04-23T01:58:22;99207.52;;;6.30;100.00
70971;BME280;58632;51.718;19.446;2023-04-23T02:00:48;99208.00;;;6.30;100.00
70971;BME280;58632;51.718;19.446;2023-04-23T02:03:14;99207.42;;;6.28;100.00
70971;BME280;58632;51.718;19.446;2023-04-23T02:05:40;99207.77;;;6.26;100.00
70971;BME280;58632;51.718;19.446;2023-04-23T02:08:07;99212.36;;;6.26;100.00
70971;BME280;58632;51.718;19.446;2023-04-23T02:10:33;99209.64;;;6.25;100.00
70971;BME280;58632;51.718;19.446;2023-04-23T02:12:59;99206.54;;;6.26;100.00
70971;BME280;58632;51.718;19.446;2023-04-23T02:15:28;99206.84;;;6.24;100.00
70971;BME280;58632;51.718;19.446;2023-04-23T02:17:54;99205.13;;;6.21;100.00
70971;BME280;58632;51.718;19.446;2023-04-23T02:20:22;99202.85;;;6.18;100.00
70971;BME280;58632;51.718;19.446;2023-04-23T02:22:48;99198.45;;;6.15;100.00
70971;BME280;58632;51.718;19.446;2023-04-23T02:25:15;99198.70;;;6.11;100.00
70971;BME280;58632;51.718;19.446;2023-04-23T02:27:42;99197.83;;;6.07;100.00
70971;BME280;58632;51.718;19.446;2023-04-23T02:30:09;99197.25;;;6.03;100.00
70971;BME280;58632;51.718;19.446;2023-04-23T02:32:37;99199.08;;;6.03;100.00
70971;BME280;58632;51.718;19.446;2023-04-23T02:35:04;99194.48;;;6.01;100.00
70971;BME280;58632;51.718;19.446;2023-04-23T02:37:33;99192.34;;;6.00;100.00
70971;BME280;58632;51.718;19.446;2023-04-23T02:39:59;99191.96;;;5.97;100.00
70971;BME280;58632;51.718;19.446;2023-04-23T02:42:25;99189.79;;;5.93;100.00
70971;BME280;58632;51.718;19.446;2023-04-23T02:44:51;99189.98;;;5.91;100.00
70971;BME280;58632;51.718;19.446;2023-04-23T02:47:17;99190.67;;;5.89;100.00
70971;BME280;58632;51.718;19.446;2023-04-23T02:49:42;99186.62;;;5.86;100.00
70971;BME280;58632;51.718;19.446;2023-04-23T02:52:08;99185.15;;;5.87;100.00
70971;BME280;58632;51.718;19.446;2023-04-23T02:54:34;99183.64;;;5.86;100.00
70971;BME280;58632;51.718;19.446;2023-04-23T02:57:02;99183.08;;;5.84;100.00
70971;BME280;58632;51.718;19.446;2023-04-23T02:59:27;99184.55;;;5.81;100.00
70971;BME280;58632;51.718;19.446;2023-04-23T03:01:53;99182.64;;;5.79;100.00
70971;BME280;58632;51.718;19.446;2023-04-23T03:04:19;99182.89;;;5.75;100.00
70971;BME280;58632;51.718;19.446;2023-04-23T03:06:45;99183.19;;;5.72;100.00
70971;BME280;58632;51.718;19.446;2023-04-23T03:09:12;99184.58;;;5.72;100.00
70971;BME280;58632;51.718;19.446;2023-04-23T03:11:38;99186.02;;;5.71;100.00
70971;BME280;58632;51.718;19.446;2023-04-23T03:14:03;99185.55;;;5.70;100.00
70971;BME280;58632;51.718;19.446;2023-04-23T03:16:29;99190.91;;;5.71;100.00
70971;BME280;58632;51.718;19.446;2023-04-23T03:18:56;99186.08;;;5.71;100.00
70971;BME280;58632;51.718;19.446;2023-04-23T03:21:21;99185.20;;;5.70;100.00
70971;BME280;58632;51.718;19.446;2023-04-23T03:23:47;99185.02;;;5.70;100.00
70971;BME280;58632;51.718;19.446;2023-04-23T03:26:12;99186.45;;;5.71;100.00
70971;BME280;58632;51.718;19.446;2023-04-23T03:28:38;99188.77;;;5.72;100.00
70971;BME280;58632;51.718;19.446;2023-04-23T03:31:03;99186.34;;;5.71;100.00
70971;BME280;58632;51.718;19.446;2023-04-23T03:33:29;99187.42;;;5.71;100.00
70971;BME280;58632;51.718;19.446;2023-04-23T03:35:55;99183.08;;;5.68;100.00
70971;BME280;58632;51.718;19.446;2023-04-23T03:38:20;99182.82;;;5.68;100.00
70971;BME280;58632;51.718;19.446;2023-04-23T03:40:46;99182.16;;;5.71;100.00
70971;BME280;58632;51.718;19.446;2023-04-23T03:43:11;99181.92;;;5.74;100.00
70971;BME280;58632;51.718;19.446;2023-04-23T03:45:39;99177.30;;;5.78;100.00
70971;BME280;58632;51.718;19.446;2023-04-23T03:48:04;99175.80;;;5.84;100.00
70971;BME280;58632;51.718;19.446;2023-04-23T03:50:30;99178.09;;;5.91;100.00
70971;BME280;58632;51.718;19.446;2023-04-23T03:52:59;99172.98;;;5.94;100.00
70971;BME280;58632;51.718;19.446;2023-04-23T03:55:24;99175.14;;;5.98;100.00
70971;BME280;58632;51.718;19.446;2023-04-23T03:57:52;99176.08;;;6.02;100.00
70971;BME280;58632;51.718;19.446;2023-04-23T04:00:20;99176.81;;;6.06;100.00
70971;BME280;58632;51.718;19.446;2023-04-23T04:02:45;99173.32;;;6.09;100.00
70971;BME280;58632;51.718;19.446;2023-04-23T04:05:11;99172.92;;;6.17;100.00
70971;BME280;58632;51.718;19.446;2023-04-23T04:07:36;99172.45;;;6.32;100.00
70971;BME280;58632;51.718;19.446;2023-04-23T04:10:04;99173.70;;;6.48;100.00
70971;BME280;58632;51.718;19.446;2023-04-23T04:12:29;99171.88;;;6.65;100.00
70971;BME280;58632;51.718;19.446;2023-04-23T04:14:55;99171.42;;;6.82;100.00
70971;BME280;58632;51.718;19.446;2023-04-23T04:17:23;99176.59;;;7.25;100.00
70971;BME280;58632;51.718;19.446;2023-04-23T04:19:51;99174.49;;;8.02;100.00
70971;BME280;58632;51.718;19.446;2023-04-23T04:22:17;99170.77;;;8.90;100.00
70971;BME280;58632;51.718;19.446;2023-04-23T04:24:42;99166.57;;;9.74;100.00
70971;BME280;58632;51.718;19.446;2023-04-23T04:27:08;99167.52;;;10.60;100.00
70971;BME280;58632;51.718;19.446;2023-04-23T04:29:34;99166.64;;;11.36;100.00
70971;BME280;58632;51.718;19.446;2023-04-23T04:31:59;99170.60;;;12.02;100.00
70971;BME280;58632;51.718;19.446;2023-04-23T04:34:27;99168.95;;;12.68;100.00
70971;BME280;58632;51.718;19.446;2023-04-23T04:36:52;99165.23;;;13.33;100.00
70971;BME280;58632;51.718;19.446;2023-04-23T04:39:18;99162.84;;;13.74;100.00
70971;BME280;58632;51.718;19.446;2023-04-23T04:41:44;99163.77;;;14.17;98.31
70971;BME280;58632;51.718;19.446;2023-04-23T04:44:10;99160.98;;;14.70;96.32
70971;BME280;58632;51.718;19.446;2023-04-23T04:46:35;99161.73;;;15.14;89.79
70971;BME280;58632;51.718;19.446;2023-04-23T04:49:09;99159.73;;;15.62;88.08
70971;BME280;58632;51.718;19.446;2023-04-23T04:51:38;99159.34;;;15.71;78.50
70971;BME280;58632;51.718;19.446;2023-04-23T04:54:05;99160.91;;;15.75;75.16
70971;BME280;58632;51.718;19.446;2023-04-23T04:56:32;99163.46;;;15.83;69.89
70971;BME280;58632;51.718;19.446;2023-04-23T04:58:58;99166.91;;;15.52;70.70
70971;BME280;58632;51.718;19.446;2023-04-23T05:01:26;99167.50;;;15.49;71.92
70971;BME280;58632;51.718;19.446;2023-04-23T05:03:52;99164.58;;;15.54;75.56
70971;BME280;58632;51.718;19.446;2023-04-23T05:06:17;99165.29;;;15.34;73.43
70971;BME280;58632;51.718;19.446;2023-04-23T05:08:43;99169.67;;;15.42;73.30
70971;BME280;58632;51.718;19.446;2023-04-23T05:11:16;99163.10;;;15.81;74.30
70971;BME280;58632;51.718;19.446;2023-04-23T05:13:43;99165.02;;;16.10;68.54
70971;BME280;58632;51.718;19.446;2023-04-23T05:16:09;99163.11;;;16.46;65.79
70971;BME280;58632;51.718;19.446;2023-04-23T05:18:39;99164.17;;;16.62;65.96
70971;BME280;58632;51.718;19.446;2023-04-23T05:21:05;99160.99;;;16.40;63.25
70971;BME280;58632;51.718;19.446;2023-04-23T05:23:32;99157.86;;;16.42;66.15
70971;BME280;58632;51.718;19.446;2023-04-23T05:25:57;99162.02;;;16.47;65.29
70971;BME280;58632;51.718;19.446;2023-04-23T05:28:23;99162.33;;;16.46;61.46
70971;BME280;58632;51.718;19.446;2023-04-23T05:30:49;99161.92;;;16.38;63.52
70971;BME280;58632;51.718;19.446;2023-04-23T05:33:15;99164.91;;;16.52;63.42
70971;BME280;58632;51.718;19.446;2023-04-23T05:35:41;99162.17;;;16.67;62.39
70971;BME280;58632;51.718;19.446;2023-04-23T05:38:07;99167.85;;;17.10;60.42
70971;BME280;58632;51.718;19.446;2023-04-23T05:40:33;99167.16;;;17.58;59.97
70971;BME280;58632;51.718;19.446;2023-04-23T05:42:58;99164.30;;;18.35;58.43
70971;BME280;58632;51.718;19.446;2023-04-23T05:45:24;99163.34;;;18.98;55.18
70971;BME280;58632;51.718;19.446;2023-04-23T05:47:50;99166.15;;;19.42;49.98
70971;BME280;58632;51.718;19.446;2023-04-23T05:50:16;99167.41;;;19.80;50.45
70971;BME280;58632;51.718;19.446;2023-04-23T05:52:42;99165.34;;;20.24;48.60
70971;BME280;58632;51.718;19.446;2023-04-23T05:55:07;99164.46;;;20.64;46.63
70971;BME280;58632;51.718;19.446;2023-04-23T05:57:34;99163.88;;;20.87;44.50
70971;BME280;58632;51.718;19.446;2023-04-23T06:00:00;99161.77;;;21.08;42.80
70971;BME280;58632;51.718;19.446;2023-04-23T06:02:27;99161.30;;;21.27;43.83
70971;BME280;58632;51.718;19.446;2023-04-23T06:04:53;99162.04;;;21.47;42.81
70971;BME280;58632;51.718;19.446;2023-04-23T06:07:19;99162.09;;;21.61;42.92
70971;BME280;58632;51.718;19.446;2023-04-23T06:09:47;99161.66;;;21.80;42.62
70971;BME280;58632;51.718;19.446;2023-04-23T06:12:12;99164.59;;;21.97;41.96
70971;BME280;58632;51.718;19.446;2023-04-23T06:14:38;99163.67;;;22.26;41.75
70971;BME280;58632;51.718;19.446;2023-04-23T06:17:04;99159.00;;;22.49;40.58
70971;BME280;58632;51.718;19.446;2023-04-23T06:19:30;99158.39;;;22.71;40.91
70971;BME280;58632;51.718;19.446;2023-04-23T06:21:56;99159.48;;;23.14;39.98
70971;BME280;58632;51.718;19.446;2023-04-23T06:24:21;99157.17;;;23.30;39.55
70971;BME280;58632;51.718;19.446;2023-04-23T06:26:47;99160.36;;;23.02;37.11
70971;BME280;58632;51.718;19.446;2023-04-23T06:29:12;99156.81;;;22.46;38.65
70971;BME280;58632;51.718;19.446;2023-04-23T06:31:38;99154.79;;;22.12;39.31
70971;BME280;58632;51.718;19.446;2023-04-23T06:34:05;99162.77;;;21.89;39.57
70971;BME280;58632;51.718;19.446;2023-04-23T06:36:31;99160.74;;;21.77;40.90
70971;BME280;58632;51.718;19.446;2023-04-23T06:38:57;99161.72;;;21.82;41.15
70971;BME280;58632;51.718;19.446;2023-04-23T06:41:23;99160.95;;;21.79;40.65
70971;BME280;58632;51.718;19.446;2023-04-23T06:43:48;99160.35;;;21.67;41.54
70971;BME280;58632;51.718;19.446;2023-04-23T06:46:14;99155.19;;;21.67;42.20
70971;BME280;58632;51.718;19.446;2023-04-23T06:48:39;99159.69;;;21.70;41.84
70971;BME280;58632;51.718;19.446;2023-04-23T06:51:05;99158.40;;;21.88;41.60
70971;BME280;58632;51.718;19.446;2023-04-23T06:53:31;99152.10;;;21.88;42.12
70971;BME280;58632;51.718;19.446;2023-04-23T06:55:56;99149.58;;;21.87;43.20
70971;BME280;58632;51.718;19.446;2023-04-23T06:58:22;99146.81;;;22.00;42.94
70971;BME280;58632;51.718;19.446;2023-04-23T07:00:52;99141.74;;;22.11;42.02
70971;BME280;58632;51.718;19.446;2023-04-23T07:03:18;99141.36;;;22.10;41.13
70971;BME280;58632;51.718;19.446;2023-04-23T07:05:43;99138.40;;;22.12;41.61
70971;BME280;58632;51.718;19.446;2023-04-23T07:08:09;99138.06;;;22.13;41.64
70971;BME280;58632;51.718;19.446;2023-04-23T07:10:35;99140.40;;;22.18;43.47
70971;BME280;58632;51.718;19.446;2023-04-23T07:13:03;99133.86;;;22.40;42.36
70971;BME280;58632;51.718;19.446;2023-04-23T07:15:28;99135.67;;;22.59;42.52
70971;BME280;58632;51.718;19.446;2023-04-23T07:17:54;99136.30;;;22.67;40.86
70971;BME280;58632;51.718;19.446;2023-04-23T07:20:19;99135.41;;;22.73;40.47
70971;BME280;58632;51.718;19.446;2023-04-23T07:22:45;99131.61;;;22.65;40.91
70971;BME280;58632;51.718;19.446;2023-04-23T07:25:11;99134.30;;;22.73;41.68
70971;BME280;58632;51.718;19.446;2023-04-23T07:27:37;99129.52;;;22.83;42.49
70971;BME280;58632;51.718;19.446;2023-04-23T07:30:03;99129.80;;;22.99;41.54
70971;BME280;58632;51.718;19.446;2023-04-23T07:32:32;99123.23;;;23.06;40.97
70971;BME280;58632;51.718;19.446;2023-04-23T07:34:57;99119.33;;;23.11;40.47
70971;BME280;58632;51.718;19.446;2023-04-23T07:37:23;99117.29;;;23.29;39.92
70971;BME280;58632;51.718;19.446;2023-04-23T07:39:49;99115.31;;;23.28;40.57
70971;BME280;58632;51.718;19.446;2023-04-23T07:42:17;99116.23;;;23.19;39.84
70971;BME280;58632;51.718;19.446;2023-04-23T07:44:42;99114.38;;;23.16;40.52
70971;BME280;58632;51.718;19.446;2023-04-23T07:47:08;99115.60;;;23.24;40.29
70971;BME280;58632;51.718;19.446;2023-04-23T07:49:33;99107.59;;;23.36;39.65
70971;BME280;58632;51.718;19.446;2023-04-23T07:51:59;99108.45;;;23.31;38.97
70971;BME280;58632;51.718;19.446;2023-04-23T07:54:25;99109.04;;;23.20;39.99
70971;BME280;58632;51.718;19.446;2023-04-23T07:56:50;99111.41;;;23.07;38.11
70971;BME280;58632;51.718;19.446;2023-04-23T07:59:16;99112.98;;;22.97;38.93
70971;BME280;58632;51.718;19.446;2023-04-23T08:01:41;99111.08;;;23.13;40.80
70971;BME280;58632;51.718;19.446;2023-04-23T08:04:07;99110.76;;;23.14;38.12
70971;BME280;58632;51.718;19.446;2023-04-23T08:06:33;99107.11;;;23.07;38.82
70971;BME280;58632;51.718;19.446;2023-04-23T08:09:00;99108.89;;;23.00;38.80
70971;BME280;58632;51.718;19.446;2023-04-23T08:11:26;99101.67;;;23.02;39.46
70971;BME280;58632;51.718;19.446;2023-04-23T08:13:53;99106.01;;;23.15;40.10
70971;BME280;58632;51.718;19.446;2023-04-23T08:16:19;99105.02;;;23.22;40.01
70971;BME280;58632;51.718;19.446;2023-04-23T08:18:44;99109.95;;;23.33;40.40
70971;BME280;58632;51.718;19.446;2023-04-23T08:21:10;99110.13;;;23.27;38.14
70971;BME280;58632;51.718;19.446;2023-04-23T08:23:39;99107.01;;;23.23;39.11
70971;BME280;58632;51.718;19.446;2023-04-23T08:26:05;99103.56;;;23.19;41.34
70971;BME280;58632;51.718;19.446;2023-04-23T08:28:30;99104.48;;;23.32;41.68
70971;BME280;58632;51.718;19.446;2023-04-23T08:30:56;99101.41;;;23.51;43.55
70971;BME280;58632;51.718;19.446;2023-04-23T08:33:21;99103.47;;;23.76;41.95
70971;BME280;58632;51.718;19.446;2023-04-23T08:35:47;99102.84;;;23.69;40.02
70971;BME280;58632;51.718;19.446;2023-04-23T08:38:12;99095.53;;;23.68;40.85
70971;BME280;58632;51.718;19.446;2023-04-23T08:40:40;99099.95;;;23.84;42.30
70971;BME280;58632;51.718;19.446;2023-04-23T08:43:09;99094.45;;;23.75;38.11
70971;BME280;58632;51.718;19.446;2023-04-23T08:45:41;99089.09;;;23.49;39.95
70971;BME280;58632;51.718;19.446;2023-04-23T08:48:09;99090.98;;;23.46;42.34
70971;BME280;58632;51.718;19.446;2023-04-23T08:50:36;99091.82;;;23.52;43.13
70971;BME280;58632;51.718;19.446;2023-04-23T08:53:03;99086.84;;;23.63;44.88
70971;BME280;58632;51.718;19.446;2023-04-23T08:55:29;99085.13;;;23.74;44.51
70971;BME280;58632;51.718;19.446;2023-04-23T08:57:57;99082.38;;;23.67;40.40
70971;BME280;58632;51.718;19.446;2023-04-23T09:00:22;99076.30;;;23.59;41.04
70971;BME280;58632;51.718;19.446;2023-04-23T09:02:50;99074.59;;;23.52;39.25
70971;BME280;58632;51.718;19.446;2023-04-23T09:05:18;99069.11;;;23.46;41.52
70971;BME280;58632;51.718;19.446;2023-04-23T09:07:44;99071.84;;;23.49;41.51
70971;BME280;58632;51.718;19.446;2023-04-23T09:10:10;99066.27;;;23.44;40.01
70971;BME280;58632;51.718;19.446;2023-04-23T09:12:39;99064.19;;;23.48;44.12
70971;BME280;58632;51.718;19.446;2023-04-23T09:15:06;99061.98;;;23.60;43.84
70971;BME280;58632;51.718;19.446;2023-04-23T09:17:41;99064.58;;;23.62;39.38
70971;BME280;58632;51.718;19.446;2023-04-23T09:20:08;99061.48;;;23.52;38.49
70971;BME280;58632;51.718;19.446;2023-04-23T09:22:50;99056.52;;;23.36;38.92
70971;BME280;58632;51.718;19.446;2023-04-23T09:25:20;99049.73;;;23.26;39.15
70971;BME280;58632;51.718;19.446;2023-04-23T09:27:49;99049.14;;;23.15;38.06
70971;BME280;58632;51.718;19.446;2023-04-23T09:30:18;99050.13;;;23.13;39.96
70971;BME280;58632;51.718;19.446;2023-04-23T09:32:45;99047.38;;;23.29;41.56
70971;BME280;58632;51.718;19.446;2023-04-23T09:35:13;99039.75;;;23.36;41.55
70971;BME280;58632;51.718;19.446;2023-04-23T09:37:44;99039.15;;;23.30;38.08
70971;BME280;58632;51.718;19.446;2023-04-23T09:40:14;99039.89;;;23.28;38.86
70971;BME280;58632;51.718;19.446;2023-04-23T09:42:46;99034.77;;;23.20;37.28
70971;BME280;58632;51.718;19.446;2023-04-23T09:45:11;99029.48;;;23.17;36.89
70971;BME280;58632;51.718;19.446;2023-04-23T09:47:47;99029.95;;;23.12;37.59
70971;BME280;58632;51.718;19.446;2023-04-23T09:50:13;99027.73;;;23.06;35.52
70971;BME280;58632;51.718;19.446;2023-04-23T09:52:38;99022.21;;;22.97;36.51
70971;BME280;58632;51.718;19.446;2023-04-23T09:55:05;99019.97;;;23.04;38.00
70971;BME280;58632;51.718;19.446;2023-04-23T09:57:34;99018.70;;;23.08;37.68
70971;BME280;58632;51.718;19.446;2023-04-23T10:00:14;99020.40;;;23.02;37.52
70971;BME280;58632;51.718;19.446;2023-04-23T10:02:48;99014.80;;;22.98;37.37
70971;BME280;58632;51.718;19.446;2023-04-23T10:05:21;99017.77;;;22.86;38.17
70971;BME280;58632;51.718;19.446;2023-04-23T10:07:47;99004.64;;;22.89;37.28
70971;BME280;58632;51.718;19.446;2023-04-23T10:10:19;99008.35;;;22.91;37.50
70971;BME280;58632;51.718;19.446;2023-04-23T10:12:45;99007.70;;;22.92;36.22
70971;BME280;58632;51.718;19.446;2023-04-23T10:15:12;99002.86;;;23.02;37.67
70971;BME280;58632;51.718;19.446;2023-04-23T10:17:39;98995.56;;;23.21;36.71
70971;BME280;58632;51.718;19.446;2023-04-23T10:20:08;98997.23;;;23.35;35.16
70971;BME280;58632;51.718;19.446;2023-04-23T10:22:36;98986.12;;;23.27;34.81
70971;BME280;58632;51.718;19.446;2023-04-23T10:25:09;98988.42;;;23.41;35.75
70971;BME280;58632;51.718;19.446;2023-04-23T10:27:41;98985.34;;;23.48;33.70
70971;BME280;58632;51.718;19.446;2023-04-23T10:30:09;98982.14;;;23.39;34.33
70971;BME280;58632;51.718;19.446;2023-04-23T10:32:36;98979.09;;;23.44;35.18
70971;BME280;58632;51.718;19.446;2023-04-23T10:35:06;98981.58;;;23.56;35.84
70971;BME280;58632;51.718;19.446;2023-04-23T10:37:32;98974.28;;;23.69;36.21
70971;BME280;58632;51.718;19.446;2023-04-23T10:40:07;98974.58;;;23.75;35.80
70971;BME280;58632;51.718;19.446;2023-04-23T10:42:44;98970.61;;;23.75;33.99
70971;BME280;58632;51.718;19.446;2023-04-23T10:45:20;98962.77;;;23.63;32.71
70971;BME280;58632;51.718;19.446;2023-04-23T10:47:46;98962.69;;;23.59;34.48
70971;BME280;58632;51.718;19.446;2023-04-23T10:50:26;98964.07;;;23.61;33.71
70971;BME280;58632;51.718;19.446;2023-04-23T10:52:52;98959.13;;;23.61;34.06
70971;BME280;58632;51.718;19.446;2023-04-23T10:55:21;98962.48;;;23.57;33.84
70971;BME280;58632;51.718;19.446;2023-04-23T10:58:02;98959.80;;;23.55;33.94
70971;BME280;58632;51.718;19.446;2023-04-23T11:06:04;98959.73;;;23.59;35.25
70971;BME280;58632;51.718;19.446;2023-04-23T11:08:30;98958.06;;;23.62;34.97
70971;BME280;58632;51.718;19.446;2023-04-23T11:11:00;98954.50;;;23.64;35.86
70971;BME280;58632;51.718;19.446;2023-04-23T11:13:27;98946.96;;;23.66;35.34
70971;BME280;58632;51.718;19.446;2023-04-23T11:16:19;98946.48;;;23.66;34.85
70971;BME280;58632;51.718;19.446;2023-04-23T11:21:20;98948.84;;;23.99;35.43
70971;BME280;58632;51.718;19.446;2023-04-23T11:23:46;98947.89;;;24.05;34.59
70971;BME280;58632;51.718;19.446;2023-04-23T11:26:18;98940.22;;;23.96;33.58
70971;BME280;58632;51.718;19.446;2023-04-23T11:28:44;98938.42;;;23.97;34.50
70971;BME280;58632;51.718;19.446;2023-04-23T11:31:11;98934.36;;;23.85;33.59
70971;BME280;58632;51.718;19.446;2023-04-23T11:33:37;98931.22;;;23.87;34.87
70971;BME280;58632;51.718;19.446;2023-04-23T11:36:02;98934.52;;;23.93;34.17
70971;BME280;58632;51.718;19.446;2023-04-23T11:38:31;98927.55;;;23.94;33.94
70971;BME280;58632;51.718;19.446;2023-04-23T11:41:03;98928.10;;;23.91;34.01
70971;BME280;58632;51.718;19.446;2023-04-23T11:43:29;98930.24;;;23.84;31.04
70971;BME280;58632;51.718;19.446;2023-04-23T11:45:54;98926.30;;;23.58;31.38
70971;BME280;58632;51.718;19.446;2023-04-23T11:48:22;98921.46;;;23.40;32.75
70971;BME280;58632;51.718;19.446;2023-04-23T11:50:48;98919.36;;;23.35;34.54
70971;BME280;58632;51.718;19.446;2023-04-23T11:53:16;98916.44;;;23.48;34.97
70971;BME280;58632;51.718;19.446;2023-04-23T11:55:42;98920.88;;;23.50;34.09
70971;BME280;58632;51.718;19.446;2023-04-23T11:58:08;98916.08;;;23.54;34.32
70971;BME280;58632;51.718;19.446;2023-04-23T12:00:34;98906.11;;;23.61;34.29
70971;BME280;58632;51.718;19.446;2023-04-23T12:03:01;98912.09;;;23.66;33.09
70971;BME280;58632;51.718;19.446;2023-04-23T12:05:34;98910.48;;;23.62;33.51
70971;BME280;58632;51.718;19.446;2023-04-23T12:10:31;98908.59;;;23.64;33.91
70971;BME280;58632;51.718;19.446;2023-04-23T12:12:57;98910.59;;;23.61;34.06
70971;BME280;58632;51.718;19.446;2023-04-23T12:15:23;98908.42;;;23.61;33.58
70971;BME280;58632;51.718;19.446;2023-04-23T12:17:49;98911.42;;;23.66;33.76
70971;BME280;58632;51.718;19.446;2023-04-23T12:20:19;98904.04;;;23.68;33.35
70971;BME280;58632;51.718;19.446;2023-04-23T12:22:45;98903.06;;;23.69;33.80
70971;BME280;58632;51.718;19.446;2023-04-23T12:25:11;98900.82;;;23.67;33.91
70971;BME280;58632;51.718;19.446;2023-04-23T12:27:40;98897.29;;;23.71;33.53
70971;BME280;58632;51.718;19.446;2023-04-23T12:30:07;98893.97;;;23.81;33.83
70971;BME280;58632;51.718;19.446;2023-04-23T12:32:33;98896.88;;;23.84;33.48
70971;BME280;58632;51.718;19.446;2023-04-23T12:34:59;98898.48;;;23.71;32.46
70971;BME280;58632;51.718;19.446;2023-04-23T12:37:26;98895.62;;;23.55;33.10
70971;BME280;58632;51.718;19.446;2023-04-23T12:39:52;98891.28;;;23.22;31.81
70971;BME280;58632;51.718;19.446;2023-04-23T12:42:20;98887.77;;;23.01;32.56
70971;BME280;58632;51.718;19.446;2023-04-23T12:44:46;98880.33;;;22.97;33.08
70971;BME280;58632;51.718;19.446;2023-04-23T12:47:12;98878.89;;;22.89;33.08
70971;BME280;58632;51.718;19.446;2023-04-23T12:49:41;98882.64;;;22.84;33.94
70971;BME280;58632;51.718;19.446;2023-04-23T12:52:08;98877.02;;;22.99;34.50
70971;BME280;58632;51.718;19.446;2023-04-23T12:54:36;98869.90;;;23.21;33.78
70971;BME280;58632;51.718;19.446;2023-04-23T12:57:06;98869.08;;;23.42;33.78
70971;BME280;58632;51.718;19.446;2023-04-23T12:59:33;98874.13;;;23.63;34.51